sensor_id;sensor_type;location;lat;lon;timestamp;P1;durP1;ratioP1;P2;durP2;ratioP2
51907;SDS011;39320;53.214;6.556;2024-03-08T00:01:15;11.90;;;10.80;;
51907;SDS011;39320;53.214;6.556;2024-03-08T00:03:42;10.73;;;9.82;;
51907;SDS011;39320;53.214;6.556;2024-03-08T00:06:07;10.70;;;9.80;;
51907;SDS011;39320;53.214;6.556;2024-03-08T00:08:33;10.88;;;9.93;;
51907;SDS011;39320;53.214;6.556;2024-03-08T00:10:59;10.77;;;9.75;;
51907;SDS011;39320;53.214;6.556;2024-03-08T00:13:25;10.65;;;9.73;;
51907;SDS011;39320;53.214;6.556;2024-03-08T00:15:51;11.27;;;10.20;;
51907;SDS011;39320;53.214;6.556;2024-03-08T00:18:16;11.40;;;10.43;;
51907;SDS011;39320;53.214;6.556;2024-03-08T00:20:42;11.63;;;10.63;;
51907;SDS011;39320;53.214;6.556;2024-03-08T00:23:10;12.23;;;11.02;;
51907;SDS011;39320;53.214;6.556;2024-03-08T00:25:36;12.55;;;11.35;;
51907;SDS011;39320;53.214;6.556;2024-03-08T00:28:02;11.40;;;10.27;;
51907;SDS011;39320;53.214;6.556;2024-03-08T00:30:30;12.20;;;10.90;;
51907;SDS011;39320;53.214;6.556;2024-03-08T00:32:56;11.40;;;10.50;;
51907;SDS011;39320;53.214;6.556;2024-03-08T00:35:22;10.52;;;9.63;;
51907;SDS011;39320;53.214;6.556;2024-03-08T00:37:48;11.48;;;10.43;;
51907;SDS011;39320;53.214;6.556;2024-03-08T00:40:14;12.00;;;11.00;;
51907;SDS011;39320;53.214;6.556;2024-03-08T00:42:40;11.35;;;10.35;;
51907;SDS011;39320;53.214;6.556;2024-03-08T00:45:06;12.02;;;10.85;;
51907;SDS011;39320;53.214;6.556;2024-03-08T00:47:33;10.85;;;9.88;;
51907;SDS011;39320;53.214;6.556;2024-03-08T00:49:58;10.48;;;9.48;;
51907;SDS011;39320;53.214;6.556;2024-03-08T00:52:24;11.95;;;10.35;;
51907;SDS011;39320;53.214;6.556;2024-03-08T00:54:50;10.95;;;9.95;;
51907;SDS011;39320;53.214;6.556;2024-03-08T00:57:16;12.98;;;11.68;;
51907;SDS011;39320;53.214;6.556;2024-03-08T00:59:41;12.30;;;11.20;;
51907;SDS011;39320;53.214;6.556;2024-03-08T01:02:07;11.73;;;10.63;;
51907;SDS011;39320;53.214;6.556;2024-03-08T01:04:36;12.38;;;11.27;;
51907;SDS011;39320;53.214;6.556;2024-03-08T01:07:01;13.38;;;12.15;;
51907;SDS011;39320;53.214;6.556;2024-03-08T01:09:27;12.38;;;11.35;;
51907;SDS011;39320;53.214;6.556;2024-03-08T01:11:54;11.75;;;10.82;;
51907;SDS011;39320;53.214;6.556;2024-03-08T01:14:20;12.13;;;10.98;;
51907;SDS011;39320;53.214;6.556;2024-03-08T01:16:50;11.65;;;10.55;;
51907;SDS011;39320;53.214;6.556;2024-03-08T01:19:16;11.55;;;10.35;;
51907;SDS011;39320;53.214;6.556;2024-03-08T01:21:42;13.63;;;12.23;;
51907;SDS011;39320;53.214;6.556;2024-03-08T01:24:08;11.13;;;10.13;;
51907;SDS011;39320;53.214;6.556;2024-03-08T01:26:34;12.80;;;11.60;;
51907;SDS011;39320;53.214;6.556;2024-03-08T01:29:00;11.82;;;10.82;;
51907;SDS011;39320;53.214;6.556;2024-03-08T01:31:29;12.32;;;11.27;;
51907;SDS011;39320;53.214;6.556;2024-03-08T01:33:56;12.00;;;10.95;;
51907;SDS011;39320;53.214;6.556;2024-03-08T01:36:22;13.23;;;12.07;;
51907;SDS011;39320;53.214;6.556;2024-03-08T01:38:48;11.68;;;10.60;;
51907;SDS011;39320;53.214;6.556;2024-03-08T01:41:14;11.27;;;10.27;;
51907;SDS011;39320;53.214;6.556;2024-03-08T01:43:42;10.82;;;9.85;;
51907;SDS011;39320;53.214;6.556;2024-03-08T01:46:09;11.20;;;10.20;;
51907;SDS011;39320;53.214;6.556;2024-03-08T01:48:37;10.50;;;9.57;;
51907;SDS011;39320;53.214;6.556;2024-03-08T01:51:04;12.55;;;11.35;;
51907;SDS011;39320;53.214;6.556;2024-03-08T01:53:30;10.82;;;9.93;;
51907;SDS011;39320;53.214;6.556;2024-03-08T01:55:57;12.45;;;11.35;;
51907;SDS011;39320;53.214;6.556;2024-03-08T01:58:24;10.75;;;9.65;;
51907;SDS011;39320;53.214;6.556;2024-03-08T02:00:53;10.90;;;9.80;;
51907;SDS011;39320;53.214;6.556;2024-03-08T02:03:21;10.93;;;10.02;;
51907;SDS011;39320;53.214;6.556;2024-03-08T02:05:47;10.68;;;9.75;;
51907;SDS011;39320;53.214;6.556;2024-03-08T02:08:13;12.93;;;11.70;;
51907;SDS011;39320;53.214;6.556;2024-03-08T02:10:41;12.20;;;10.95;;
51907;SDS011;39320;53.214;6.556;2024-03-08T02:13:07;11.00;;;10.00;;
51907;SDS011;39320;53.214;6.556;2024-03-08T02:18:22;11.00;;;10.00;;
51907;SDS011;39320;53.214;6.556;2024-03-08T02:20:51;11.43;;;10.38;;
51907;SDS011;39320;53.214;6.556;2024-03-08T02:23:22;12.20;;;11.13;;
51907;SDS011;39320;53.214;6.556;2024-03-08T02:25:50;11.35;;;10.25;;
51907;SDS011;39320;53.214;6.556;2024-03-08T02:28:16;10.13;;;9.32;;
51907;SDS011;39320;53.214;6.556;2024-03-08T02:30:45;11.23;;;10.13;;
51907;SDS011;39320;53.214;6.556;2024-03-08T02:33:16;10.50;;;9.60;;
51907;SDS011;39320;53.214;6.556;2024-03-08T02:35:43;10.85;;;9.75;;
51907;SDS011;39320;53.214;6.556;2024-03-08T02:38:15;10.45;;;9.52;;
51907;SDS011;39320;53.214;6.556;2024-03-08T02:40:47;11.15;;;10.15;;
51907;SDS011;39320;53.214;6.556;2024-03-08T02:43:17;11.40;;;10.40;;
51907;SDS011;39320;53.214;6.556;2024-03-08T02:45:45;11.60;;;10.60;;
51907;SDS011;39320;53.214;6.556;2024-03-08T02:48:11;9.85;;;8.95;;
51907;SDS011;39320;53.214;6.556;2024-03-08T02:50:38;10.73;;;9.82;;
51907;SDS011;39320;53.214;6.556;2024-03-08T02:53:10;11.32;;;10.27;;
51907;SDS011;39320;53.214;6.556;2024-03-08T02:55:38;11.00;;;10.07;;
51907;SDS011;39320;53.214;6.556;2024-03-08T02:58:06;10.60;;;9.60;;
51907;SDS011;39320;53.214;6.556;2024-03-08T03:00:35;10.23;;;9.32;;
51907;SDS011;39320;53.214;6.556;2024-03-08T03:03:01;11.35;;;10.02;;
51907;SDS011;39320;53.214;6.556;2024-03-08T03:05:28;10.23;;;9.30;;
51907;SDS011;39320;53.214;6.556;2024-03-08T03:07:57;9.90;;;9.00;;
51907;SDS011;39320;53.214;6.556;2024-03-08T03:10:23;10.10;;;9.20;;
51907;SDS011;39320;53.214;6.556;2024-03-08T03:12:49;10.93;;;9.93;;
51907;SDS011;39320;53.214;6.556;2024-03-08T03:15:15;10.40;;;9.48;;
51907;SDS011;39320;53.214;6.556;2024-03-08T03:17:50;10.57;;;9.50;;
51907;SDS011;39320;53.214;6.556;2024-03-08T03:20:17;9.45;;;8.65;;
51907;SDS011;39320;53.214;6.556;2024-03-08T03:22:50;9.82;;;9.02;;
51907;SDS011;39320;53.214;6.556;2024-03-08T03:25:20;9.85;;;9.00;;
51907;SDS011;39320;53.214;6.556;2024-03-08T03:27:58;9.95;;;9.15;;
51907;SDS011;39320;53.214;6.556;2024-03-08T03:30:24;10.40;;;9.50;;
51907;SDS011;39320;53.214;6.556;2024-03-08T03:32:58;9.88;;;8.90;;
51907;SDS011;39320;53.214;6.556;2024-03-08T03:35:31;10.27;;;9.10;;
51907;SDS011;39320;53.214;6.556;2024-03-08T03:37:59;9.93;;;9.10;;
51907;SDS011;39320;53.214;6.556;2024-03-08T03:40:35;10.52;;;9.63;;
51907;SDS011;39320;53.214;6.556;2024-03-08T03:43:01;10.32;;;9.43;;
51907;SDS011;39320;53.214;6.556;2024-03-08T03:45:28;9.93;;;8.93;;
51907;SDS011;39320;53.214;6.556;2024-03-08T03:47:55;10.38;;;9.40;;
51907;SDS011;39320;53.214;6.556;2024-03-08T03:50:21;8.93;;;8.13;;
51907;SDS011;39320;53.214;6.556;2024-03-08T03:52:47;10.25;;;9.32;;
51907;SDS011;39320;53.214;6.556;2024-03-08T03:55:13;10.40;;;9.50;;
51907;SDS011;39320;53.214;6.556;2024-03-08T03:57:39;9.60;;;8.70;;
51907;SDS011;39320;53.214;6.556;2024-03-08T04:00:06;10.45;;;9.55;;
51907;SDS011;39320;53.214;6.556;2024-03-08T04:02:36;9.75;;;8.85;;
51907;SDS011;39320;53.214;6.556;2024-03-08T04:05:06;10.45;;;9.45;;
51907;SDS011;39320;53.214;6.556;2024-03-08T04:07:33;9.43;;;8.48;;
51907;SDS011;39320;53.214;6.556;2024-03-08T04:09:59;10.02;;;9.13;;
51907;SDS011;39320;53.214;6.556;2024-03-08T04:12:29;10.13;;;9.23;;
51907;SDS011;39320;53.214;6.556;2024-03-08T04:14:55;9.95;;;9.05;;
51907;SDS011;39320;53.214;6.556;2024-03-08T04:17:21;9.60;;;8.77;;
51907;SDS011;39320;53.214;6.556;2024-03-08T04:19:49;11.10;;;10.10;;
51907;SDS011;39320;53.214;6.556;2024-03-08T04:22:15;8.63;;;7.85;;
51907;SDS011;39320;53.214;6.556;2024-03-08T04:24:43;9.73;;;8.73;;
51907;SDS011;39320;53.214;6.556;2024-03-08T04:27:09;9.82;;;8.88;;
51907;SDS011;39320;53.214;6.556;2024-03-08T04:29:35;9.32;;;8.50;;
51907;SDS011;39320;53.214;6.556;2024-03-08T04:32:04;9.43;;;8.52;;
51907;SDS011;39320;53.214;6.556;2024-03-08T04:34:31;9.68;;;8.82;;
51907;SDS011;39320;53.214;6.556;2024-03-08T04:36:57;9.23;;;8.43;;
51907;SDS011;39320;53.214;6.556;2024-03-08T04:39:23;10.68;;;8.50;;
51907;SDS011;39320;53.214;6.556;2024-03-08T04:41:49;9.50;;;8.65;;
51907;SDS011;39320;53.214;6.556;2024-03-08T04:44:16;10.05;;;9.25;;
51907;SDS011;39320;53.214;6.556;2024-03-08T04:46:42;9.68;;;8.77;;
51907;SDS011;39320;53.214;6.556;2024-03-08T04:49:09;9.15;;;8.35;;
51907;SDS011;39320;53.214;6.556;2024-03-08T04:51:36;9.23;;;8.43;;
51907;SDS011;39320;53.214;6.556;2024-03-08T04:54:02;9.85;;;9.05;;
51907;SDS011;39320;53.214;6.556;2024-03-08T04:56:29;9.57;;;8.73;;
51907;SDS011;39320;53.214;6.556;2024-03-08T04:58:55;10.07;;;9.13;;
51907;SDS011;39320;53.214;6.556;2024-03-08T05:01:21;9.07;;;8.18;;
51907;SDS011;39320;53.214;6.556;2024-03-08T05:03:47;9.45;;;8.65;;
51907;SDS011;39320;53.214;6.556;2024-03-08T05:06:15;9.90;;;8.95;;
51907;SDS011;39320;53.214;6.556;2024-03-08T05:08:41;8.55;;;7.80;;
51907;SDS011;39320;53.214;6.556;2024-03-08T05:11:07;9.00;;;8.25;;
51907;SDS011;39320;53.214;6.556;2024-03-08T05:13:33;9.13;;;8.43;;
51907;SDS011;39320;53.214;6.556;2024-03-08T05:15:59;8.40;;;7.70;;
51907;SDS011;39320;53.214;6.556;2024-03-08T05:18:34;9.27;;;8.48;;
51907;SDS011;39320;53.214;6.556;2024-03-08T05:21:01;9.45;;;8.60;;
51907;SDS011;39320;53.214;6.556;2024-03-08T05:23:29;9.05;;;8.30;;
51907;SDS011;39320;53.214;6.556;2024-03-08T05:25:55;9.27;;;8.55;;
51907;SDS011;39320;53.214;6.556;2024-03-08T05:28:21;8.55;;;7.78;;
51907;SDS011;39320;53.214;6.556;2024-03-08T05:30:46;8.32;;;7.63;;
51907;SDS011;39320;53.214;6.556;2024-03-08T05:33:12;9.25;;;8.45;;
51907;SDS011;39320;53.214;6.556;2024-03-08T05:35:39;8.13;;;7.43;;
51907;SDS011;39320;53.214;6.556;2024-03-08T05:38:05;8.52;;;7.75;;
51907;SDS011;39320;53.214;6.556;2024-03-08T05:40:32;9.88;;;8.98;;
51907;SDS011;39320;53.214;6.556;2024-03-08T05:42:58;8.95;;;8.15;;
51907;SDS011;39320;53.214;6.556;2024-03-08T05:45:26;9.38;;;8.55;;
51907;SDS011;39320;53.214;6.556;2024-03-08T05:47:52;8.98;;;8.27;;
51907;SDS011;39320;53.214;6.556;2024-03-08T05:50:18;9.77;;;8.82;;
51907;SDS011;39320;53.214;6.556;2024-03-08T05:52:44;9.50;;;8.70;;
51907;SDS011;39320;53.214;6.556;2024-03-08T05:55:10;8.88;;;8.18;;
51907;SDS011;39320;53.214;6.556;2024-03-08T05:57:39;8.77;;;8.07;;
51907;SDS011;39320;53.214;6.556;2024-03-08T06:00:05;9.00;;;8.25;;
51907;SDS011;39320;53.214;6.556;2024-03-08T06:02:31;9.40;;;8.65;;
51907;SDS011;39320;53.214;6.556;2024-03-08T06:04:58;10.32;;;8.75;;
51907;SDS011;39320;53.214;6.556;2024-03-08T06:07:24;8.82;;;8.13;;
51907;SDS011;39320;53.214;6.556;2024-03-08T06:09:49;8.98;;;8.27;;
51907;SDS011;39320;53.214;6.556;2024-03-08T06:12:15;8.88;;;8.10;;
51907;SDS011;39320;53.214;6.556;2024-03-08T06:14:45;8.73;;;7.97;;
51907;SDS011;39320;53.214;6.556;2024-03-08T06:17:11;8.80;;;8.20;;
51907;SDS011;39320;53.214;6.556;2024-03-08T06:19:37;8.93;;;8.05;;
51907;SDS011;39320;53.214;6.556;2024-03-08T06:22:02;8.50;;;7.72;;
51907;SDS011;39320;53.214;6.556;2024-03-08T06:24:31;7.95;;;7.25;;
51907;SDS011;39320;53.214;6.556;2024-03-08T06:26:57;9.15;;;8.35;;
51907;SDS011;39320;53.214;6.556;2024-03-08T06:29:23;9.20;;;8.40;;
51907;SDS011;39320;53.214;6.556;2024-03-08T06:31:49;8.80;;;8.00;;
51907;SDS011;39320;53.214;6.556;2024-03-08T06:34:14;8.73;;;8.02;;
51907;SDS011;39320;53.214;6.556;2024-03-08T06:36:41;8.13;;;7.43;;
51907;SDS011;39320;53.214;6.556;2024-03-08T06:39:06;8.63;;;7.88;;
51907;SDS011;39320;53.214;6.556;2024-03-08T06:41:37;9.10;;;8.40;;
51907;SDS011;39320;53.214;6.556;2024-03-08T06:44:03;9.52;;;8.63;;
51907;SDS011;39320;53.214;6.556;2024-03-08T06:46:29;9.40;;;8.57;;
51907;SDS011;39320;53.214;6.556;2024-03-08T06:48:55;8.88;;;8.07;;
51907;SDS011;39320;53.214;6.556;2024-03-08T06:51:21;8.82;;;8.02;;
51907;SDS011;39320;53.214;6.556;2024-03-08T06:53:46;9.48;;;8.57;;
51907;SDS011;39320;53.214;6.556;2024-03-08T06:56:14;8.80;;;8.10;;
51907;SDS011;39320;53.214;6.556;2024-03-08T06:58:40;9.10;;;8.30;;
51907;SDS011;39320;53.214;6.556;2024-03-08T07:01:06;8.50;;;7.75;;
51907;SDS011;39320;53.214;6.556;2024-03-08T07:03:32;9.00;;;8.20;;
51907;SDS011;39320;53.214;6.556;2024-03-08T07:05:58;9.73;;;8.82;;
51907;SDS011;39320;53.214;6.556;2024-03-08T07:08:24;9.30;;;8.40;;
51907;SDS011;39320;53.214;6.556;2024-03-08T07:10:52;8.73;;;7.93;;
51907;SDS011;39320;53.214;6.556;2024-03-08T07:13:18;8.73;;;8.02;;
51907;SDS011;39320;53.214;6.556;2024-03-08T07:15:44;9.05;;;8.30;;
51907;SDS011;39320;53.214;6.556;2024-03-08T07:18:11;8.57;;;7.78;;
51907;SDS011;39320;53.214;6.556;2024-03-08T07:20:40;7.97;;;7.38;;
51907;SDS011;39320;53.214;6.556;2024-03-08T07:23:07;10.23;;;9.20;;
51907;SDS011;39320;53.214;6.556;2024-03-08T07:25:33;10.43;;;8.55;;
51907;SDS011;39320;53.214;6.556;2024-03-08T07:28:00;8.88;;;7.97;;
51907;SDS011;39320;53.214;6.556;2024-03-08T07:30:26;8.15;;;7.55;;
51907;SDS011;39320;53.214;6.556;2024-03-08T07:33:24;9.13;;;8.40;;
51907;SDS011;39320;53.214;6.556;2024-03-08T07:35:50;10.52;;;9.55;;
51907;SDS011;39320;53.214;6.556;2024-03-08T07:38:16;9.30;;;8.48;;
51907;SDS011;39320;53.214;6.556;2024-03-08T07:40:42;8.95;;;8.25;;
51907;SDS011;39320;53.214;6.556;2024-03-08T07:43:10;8.55;;;7.75;;
51907;SDS011;39320;53.214;6.556;2024-03-08T07:45:37;9.13;;;8.32;;
51907;SDS011;39320;53.214;6.556;2024-03-08T07:48:03;9.85;;;9.05;;
51907;SDS011;39320;53.214;6.556;2024-03-08T07:50:35;9.55;;;8.75;;
51907;SDS011;39320;53.214;6.556;2024-03-08T07:53:05;9.30;;;8.50;;
51907;SDS011;39320;53.214;6.556;2024-03-08T07:55:34;8.70;;;8.00;;
51907;SDS011;39320;53.214;6.556;2024-03-08T07:58:01;9.57;;;8.82;;
51907;SDS011;39320;53.214;6.556;2024-03-08T08:00:28;8.98;;;8.07;;
51907;SDS011;39320;53.214;6.556;2024-03-08T08:02:55;9.98;;;9.07;;
51907;SDS011;39320;53.214;6.556;2024-03-08T08:05:21;10.05;;;9.23;;
51907;SDS011;39320;53.214;6.556;2024-03-08T08:07:47;9.38;;;8.57;;
51907;SDS011;39320;53.214;6.556;2024-03-08T08:10:13;8.98;;;8.25;;
51907;SDS011;39320;53.214;6.556;2024-03-08T08:12:50;9.40;;;8.50;;
51907;SDS011;39320;53.214;6.556;2024-03-08T08:15:19;8.80;;;8.00;;
51907;SDS011;39320;53.214;6.556;2024-03-08T08:17:45;9.55;;;8.85;;
51907;SDS011;39320;53.214;6.556;2024-03-08T08:20:12;9.23;;;8.52;;
51907;SDS011;39320;53.214;6.556;2024-03-08T08:22:38;9.43;;;8.63;;
51907;SDS011;39320;53.214;6.556;2024-03-08T08:25:12;9.00;;;8.15;;
51907;SDS011;39320;53.214;6.556;2024-03-08T08:27:40;9.55;;;8.73;;
51907;SDS011;39320;53.214;6.556;2024-03-08T08:30:07;9.57;;;8.77;;
51907;SDS011;39320;53.214;6.556;2024-03-08T08:32:34;10.18;;;9.15;;
51907;SDS011;39320;53.214;6.556;2024-03-08T08:35:04;9.52;;;8.73;;
51907;SDS011;39320;53.214;6.556;2024-03-08T08:37:31;10.05;;;9.15;;
51907;SDS011;39320;53.214;6.556;2024-03-08T08:39:57;9.25;;;8.50;;
51907;SDS011;39320;53.214;6.556;2024-03-08T08:42:23;9.93;;;9.07;;
51907;SDS011;39320;53.214;6.556;2024-03-08T08:44:50;8.90;;;8.18;;
51907;SDS011;39320;53.214;6.556;2024-03-08T08:47:17;10.68;;;9.10;;
51907;SDS011;39320;53.214;6.556;2024-03-08T08:49:44;11.25;;;10.25;;
51907;SDS011;39320;53.214;6.556;2024-03-08T08:52:11;9.48;;;8.68;;
51907;SDS011;39320;53.214;6.556;2024-03-08T08:54:37;9.93;;;9.02;;
51907;SDS011;39320;53.214;6.556;2024-03-08T08:57:03;10.27;;;9.48;;
51907;SDS011;39320;53.214;6.556;2024-03-08T08:59:36;9.07;;;8.38;;
51907;SDS011;39320;53.214;6.556;2024-03-08T09:02:02;10.63;;;9.82;;
51907;SDS011;39320;53.214;6.556;2024-03-08T09:04:31;10.63;;;9.63;;
51907;SDS011;39320;53.214;6.556;2024-03-08T09:06:57;9.00;;;8.20;;
51907;SDS011;39320;53.214;6.556;2024-03-08T09:09:22;9.70;;;8.70;;
51907;SDS011;39320;53.214;6.556;2024-03-08T09:11:50;10.20;;;9.30;;
51907;SDS011;39320;53.214;6.556;2024-03-08T09:14:16;10.25;;;9.27;;
51907;SDS011;39320;53.214;6.556;2024-03-08T09:16:42;9.70;;;8.90;;
51907;SDS011;39320;53.214;6.556;2024-03-08T09:19:08;10.45;;;9.43;;
51907;SDS011;39320;53.214;6.556;2024-03-08T09:21:36;10.00;;;9.05;;
51907;SDS011;39320;53.214;6.556;2024-03-08T09:24:02;10.05;;;9.20;;
51907;SDS011;39320;53.214;6.556;2024-03-08T09:26:28;9.82;;;9.02;;
51907;SDS011;39320;53.214;6.556;2024-03-08T09:28:53;9.75;;;9.00;;
51907;SDS011;39320;53.214;6.556;2024-03-08T09:31:22;9.38;;;8.60;;
51907;SDS011;39320;53.214;6.556;2024-03-08T09:33:48;10.15;;;9.25;;
51907;SDS011;39320;53.214;6.556;2024-03-08T09:36:14;10.77;;;9.88;;
51907;SDS011;39320;53.214;6.556;2024-03-08T09:38:39;9.23;;;8.43;;
51907;SDS011;39320;53.214;6.556;2024-03-08T09:41:05;10.10;;;9.13;;
51907;SDS011;39320;53.214;6.556;2024-03-08T09:43:31;10.27;;;9.25;;
51907;SDS011;39320;53.214;6.556;2024-03-08T09:45:58;9.90;;;9.07;;
51907;SDS011;39320;53.214;6.556;2024-03-08T09:48:24;10.98;;;10.07;;
51907;SDS011;39320;53.214;6.556;2024-03-08T09:50:51;9.43;;;8.68;;
51907;SDS011;39320;53.214;6.556;2024-03-08T09:53:17;9.65;;;8.75;;
51907;SDS011;39320;53.214;6.556;2024-03-08T09:55:43;11.07;;;9.98;;
51907;SDS011;39320;53.214;6.556;2024-03-08T09:58:13;10.07;;;9.27;;
51907;SDS011;39320;53.214;6.556;2024-03-08T10:00:53;9.90;;;9.00;;
51907;SDS011;39320;53.214;6.556;2024-03-08T10:03:19;9.85;;;8.93;;
51907;SDS011;39320;53.214;6.556;2024-03-08T10:05:45;10.90;;;10.00;;
51907;SDS011;39320;53.214;6.556;2024-03-08T10:08:11;10.73;;;9.73;;
51907;SDS011;39320;53.214;6.556;2024-03-08T10:10:38;11.02;;;10.02;;
51907;SDS011;39320;53.214;6.556;2024-03-08T10:13:08;11.77;;;10.77;;
51907;SDS011;39320;53.214;6.556;2024-03-08T10:15:37;10.32;;;9.50;;
51907;SDS011;39320;53.214;6.556;2024-03-08T10:18:05;9.98;;;9.18;;
51907;SDS011;39320;53.214;6.556;2024-03-08T10:20:32;10.05;;;9.10;;
51907;SDS011;39320;53.214;6.556;2024-03-08T10:23:02;10.07;;;9.18;;
51907;SDS011;39320;53.214;6.556;2024-03-08T10:25:30;10.93;;;10.02;;
51907;SDS011;39320;53.214;6.556;2024-03-08T10:27:59;10.57;;;9.68;;
51907;SDS011;39320;53.214;6.556;2024-03-08T10:30:29;10.20;;;9.35;;
51907;SDS011;39320;53.214;6.556;2024-03-08T10:32:55;10.95;;;9.95;;
51907;SDS011;39320;53.214;6.556;2024-03-08T10:35:21;9.65;;;8.85;;
51907;SDS011;39320;53.214;6.556;2024-03-08T10:37:49;11.27;;;10.38;;
51907;SDS011;39320;53.214;6.556;2024-03-08T10:40:24;10.50;;;9.65;;
51907;SDS011;39320;53.214;6.556;2024-03-08T10:42:54;10.40;;;9.50;;
51907;SDS011;39320;53.214;6.556;2024-03-08T10:45:39;10.48;;;9.57;;
51907;SDS011;39320;53.214;6.556;2024-03-08T10:50:35;10.10;;;9.05;;
51907;SDS011;39320;53.214;6.556;2024-03-08T10:53:03;10.38;;;9.43;;
51907;SDS011;39320;53.214;6.556;2024-03-08T10:55:31;10.68;;;9.77;;
51907;SDS011;39320;53.214;6.556;2024-03-08T10:57:59;11.15;;;9.73;;
51907;SDS011;39320;53.214;6.556;2024-03-08T11:00:25;10.00;;;9.15;;
51907;SDS011;39320;53.214;6.556;2024-03-08T11:02:52;10.55;;;9.68;;
51907;SDS011;39320;53.214;6.556;2024-03-08T11:05:31;10.25;;;9.35;;
51907;SDS011;39320;53.214;6.556;2024-03-08T11:08:01;10.13;;;9.23;;
51907;SDS011;39320;53.214;6.556;2024-03-08T11:10:28;10.68;;;9.70;;
51907;SDS011;39320;53.214;6.556;2024-03-08T11:12:54;9.90;;;9.10;;
51907;SDS011;39320;53.214;6.556;2024-03-08T11:15:20;10.00;;;9.18;;
51907;SDS011;39320;53.214;6.556;2024-03-08T11:17:47;10.30;;;9.50;;
51907;SDS011;39320;53.214;6.556;2024-03-08T11:20:14;10.90;;;9.90;;
51907;SDS011;39320;53.214;6.556;2024-03-08T11:22:47;10.90;;;10.00;;
51907;SDS011;39320;53.214;6.556;2024-03-08T11:28:10;10.63;;;9.77;;
51907;SDS011;39320;53.214;6.556;2024-03-08T11:33:24;9.93;;;9.10;;
51907;SDS011;39320;53.214;6.556;2024-03-08T11:36:13;10.43;;;9.60;;
51907;SDS011;39320;53.214;6.556;2024-03-08T11:38:47;10.25;;;9.43;;
51907;SDS011;39320;53.214;6.556;2024-03-08T11:41:17;11.35;;;10.43;;
51907;SDS011;39320;53.214;6.556;2024-03-08T11:43:46;10.38;;;9.45;;
51907;SDS011;39320;53.214;6.556;2024-03-08T11:46:13;10.00;;;9.20;;
51907;SDS011;39320;53.214;6.556;2024-03-08T11:48:41;11.02;;;10.02;;
51907;SDS011;39320;53.214;6.556;2024-03-08T11:51:08;11.05;;;10.15;;
51907;SDS011;39320;53.214;6.556;2024-03-08T11:53:34;10.30;;;9.50;;
51907;SDS011;39320;53.214;6.556;2024-03-08T11:56:08;11.00;;;10.00;;
51907;SDS011;39320;53.214;6.556;2024-03-08T11:58:38;10.88;;;9.98;;
51907;SDS011;39320;53.214;6.556;2024-03-08T12:01:09;10.52;;;9.63;;
51907;SDS011;39320;53.214;6.556;2024-03-08T12:03:38;10.80;;;9.75;;
51907;SDS011;39320;53.214;6.556;2024-03-08T12:06:07;10.15;;;9.25;;
51907;SDS011;39320;53.214;6.556;2024-03-08T12:08:38;10.57;;;9.68;;
51907;SDS011;39320;53.214;6.556;2024-03-08T12:11:04;10.77;;;9.77;;
51907;SDS011;39320;53.214;6.556;2024-03-08T12:13:31;10.80;;;9.90;;
51907;SDS011;39320;53.214;6.556;2024-03-08T12:15:59;10.30;;;9.32;;
51907;SDS011;39320;53.214;6.556;2024-03-08T12:18:29;10.15;;;9.35;;
51907;SDS011;39320;53.214;6.556;2024-03-08T12:21:08;10.85;;;9.95;;
51907;SDS011;39320;53.214;6.556;2024-03-08T12:23:36;10.27;;;9.48;;
51907;SDS011;39320;53.214;6.556;2024-03-08T12:26:09;9.55;;;8.85;;
51907;SDS011;39320;53.214;6.556;2024-03-08T12:28:38;9.90;;;9.02;;
51907;SDS011;39320;53.214;6.556;2024-03-08T12:31:06;10.35;;;9.55;;
51907;SDS011;39320;53.214;6.556;2024-03-08T12:33:36;10.07;;;9.27;;
51907;SDS011;39320;53.214;6.556;2024-03-08T12:36:24;10.95;;;10.00;;
51907;SDS011;39320;53.214;6.556;2024-03-08T12:38:50;10.25;;;9.38;;
51907;SDS011;39320;53.214;6.556;2024-03-08T12:41:19;9.70;;;8.80;;
51907;SDS011;39320;53.214;6.556;2024-03-08T12:43:46;9.82;;;9.02;;
51907;SDS011;39320;53.214;6.556;2024-03-08T12:46:20;9.77;;;8.98;;
51907;SDS011;39320;53.214;6.556;2024-03-08T12:48:47;10.27;;;9.45;;
51907;SDS011;39320;53.214;6.556;2024-03-08T12:51:13;10.55;;;9.57;;
51907;SDS011;39320;53.214;6.556;2024-03-08T12:53:41;10.23;;;9.40;;
51907;SDS011;39320;53.214;6.556;2024-03-08T12:56:11;10.20;;;9.40;;
51907;SDS011;39320;53.214;6.556;2024-03-08T12:58:37;9.38;;;8.65;;
51907;SDS011;39320;53.214;6.556;2024-03-08T13:01:04;10.52;;;9.63;;
51907;SDS011;39320;53.214;6.556;2024-03-08T13:03:33;9.60;;;8.90;;
51907;SDS011;39320;53.214;6.556;2024-03-08T13:06:05;9.15;;;8.45;;
51907;SDS011;39320;53.214;6.556;2024-03-08T13:08:36;10.98;;;10.05;;
51907;SDS011;39320;53.214;6.556;2024-03-08T13:11:08;11.13;;;10.13;;
51907;SDS011;39320;53.214;6.556;2024-03-08T13:13:37;9.82;;;9.02;;
51907;SDS011;39320;53.214;6.556;2024-03-08T13:16:05;10.15;;;9.30;;
51907;SDS011;39320;53.214;6.556;2024-03-08T13:18:36;8.98;;;8.18;;
51907;SDS011;39320;53.214;6.556;2024-03-08T13:21:03;9.23;;;8.52;;
51907;SDS011;39320;53.214;6.556;2024-03-08T13:23:32;9.93;;;9.10;;
51907;SDS011;39320;53.214;6.556;2024-03-08T13:26:04;8.77;;;8.07;;
51907;SDS011;39320;53.214;6.556;2024-03-08T13:28:33;8.95;;;8.23;;
51907;SDS011;39320;53.214;6.556;2024-03-08T13:31:05;9.27;;;8.55;;
51907;SDS011;39320;53.214;6.556;2024-03-08T13:33:40;8.75;;;7.95;;
51907;SDS011;39320;53.214;6.556;2024-03-08T13:36:07;8.82;;;8.13;;
51907;SDS011;39320;53.214;6.556;2024-03-08T13:38:46;8.02;;;7.43;;
51907;SDS011;39320;53.214;6.556;2024-03-08T13:41:14;8.40;;;7.70;;
51907;SDS011;39320;53.214;6.556;2024-03-08T13:43:42;8.88;;;8.18;;
51907;SDS011;39320;53.214;6.556;2024-03-08T13:46:08;8.77;;;7.97;;
51907;SDS011;39320;53.214;6.556;2024-03-08T13:48:35;8.55;;;7.88;;
51907;SDS011;39320;53.214;6.556;2024-03-08T13:51:03;8.10;;;7.40;;
51907;SDS011;39320;53.214;6.556;2024-03-08T13:53:31;8.48;;;7.88;;
51907;SDS011;39320;53.214;6.556;2024-03-08T13:55:57;8.32;;;7.63;;
51907;SDS011;39320;53.214;6.556;2024-03-08T13:58:23;8.48;;;7.75;;
51907;SDS011;39320;53.214;6.556;2024-03-08T14:00:49;8.07;;;7.38;;
51907;SDS011;39320;53.214;6.556;2024-03-08T14:03:16;7.97;;;7.28;;
51907;SDS011;39320;53.214;6.556;2024-03-08T14:05:43;8.50;;;7.80;;
51907;SDS011;39320;53.214;6.556;2024-03-08T14:08:09;8.88;;;8.15;;
51907;SDS011;39320;53.214;6.556;2024-03-08T14:10:37;8.95;;;8.23;;
51907;SDS011;39320;53.214;6.556;2024-03-08T14:13:03;8.60;;;7.90;;
51907;SDS011;39320;53.214;6.556;2024-03-08T14:15:30;9.10;;;8.40;;
51907;SDS011;39320;53.214;6.556;2024-03-08T14:17:56;7.68;;;7.00;;
51907;SDS011;39320;53.214;6.556;2024-03-08T14:20:23;7.47;;;6.88;;
51907;SDS011;39320;53.214;6.556;2024-03-08T14:22:53;8.02;;;7.43;;
51907;SDS011;39320;53.214;6.556;2024-03-08T14:25:23;7.93;;;7.32;;
51907;SDS011;39320;53.214;6.556;2024-03-08T14:27:52;8.32;;;7.72;;
51907;SDS011;39320;53.214;6.556;2024-03-08T14:30:19;7.80;;;7.20;;
51907;SDS011;39320;53.214;6.556;2024-03-08T14:33:06;7.88;;;7.15;;
51907;SDS011;39320;53.214;6.556;2024-03-08T14:35:36;7.93;;;7.25;;
51907;SDS011;39320;53.214;6.556;2024-03-08T14:38:02;7.65;;;7.05;;
51907;SDS011;39320;53.214;6.556;2024-03-08T14:40:28;8.27;;;7.57;;
51907;SDS011;39320;53.214;6.556;2024-03-08T14:42:55;7.57;;;6.97;;
51907;SDS011;39320;53.214;6.556;2024-03-08T14:45:22;7.95;;;7.25;;
51907;SDS011;39320;53.214;6.556;2024-03-08T14:47:49;7.65;;;7.00;;
51907;SDS011;39320;53.214;6.556;2024-03-08T14:50:19;8.13;;;7.47;;
51907;SDS011;39320;53.214;6.556;2024-03-08T14:52:47;7.50;;;6.90;;